sensor_id;sensor_type;location;lat;lon;timestamp;P1;durP1;ratioP1;P2;durP2;ratioP2
14584;SDS011;7379;51.506;11.876;2023-11-19T00:00:47;3.37;;;3.00;;
14584;SDS011;7379;51.506;11.876;2023-11-19T00:03:14;3.40;;;2.80;;
14584;SDS011;7379;51.506;11.876;2023-11-19T00:05:42;3.40;;;3.10;;
14584;SDS011;7379;51.506;11.876;2023-11-19T00:08:09;3.17;;;2.80;;
14584;SDS011;7379;51.506;11.876;2023-11-19T00:10:36;3.47;;;2.87;;
14584;SDS011;7379;51.506;11.876;2023-11-19T00:13:03;2.80;;;2.60;;
14584;SDS011;7379;51.506;11.876;2023-11-19T00:15:30;3.17;;;2.87;;
14584;SDS011;7379;51.506;11.876;2023-11-19T00:17:57;2.87;;;2.57;;
14584;SDS011;7379;51.506;11.876;2023-11-19T00:20:23;2.60;;;2.40;;
14584;SDS011;7379;51.506;11.876;2023-11-19T00:22:52;3.10;;;2.70;;
14584;SDS011;7379;51.506;11.876;2023-11-19T00:25:19;2.90;;;2.60;;
14584;SDS011;7379;51.506;11.876;2023-11-19T00:27:46;2.93;;;2.60;;
14584;SDS011;7379;51.506;11.876;2023-11-19T00:30:14;2.80;;;2.60;;
14584;SDS011;7379;51.506;11.876;2023-11-19T00:32:41;2.50;;;2.30;;
14584;SDS011;7379;51.506;11.876;2023-11-19T00:35:09;2.70;;;2.30;;
14584;SDS011;7379;51.506;11.876;2023-11-19T00:37:36;2.70;;;2.50;;
14584;SDS011;7379;51.506;11.876;2023-11-19T00:40:07;2.40;;;2.20;;
14584;SDS011;7379;51.506;11.876;2023-11-19T00:42:35;2.77;;;2.50;;
14584;SDS011;7379;51.506;11.876;2023-11-19T00:45:02;3.80;;;2.50;;
14584;SDS011;7379;51.506;11.876;2023-11-19T00:47:33;2.70;;;2.50;;
14584;SDS011;7379;51.506;11.876;2023-11-19T00:50:00;2.73;;;2.53;;
14584;SDS011;7379;51.506;11.876;2023-11-19T00:52:27;3.00;;;2.70;;
14584;SDS011;7379;51.506;11.876;2023-11-19T00:54:54;3.33;;;3.03;;
14584;SDS011;7379;51.506;11.876;2023-11-19T00:57:23;3.40;;;3.10;;
14584;SDS011;7379;51.506;11.876;2023-11-19T00:59:51;3.63;;;3.03;;
14584;SDS011;7379;51.506;11.876;2023-11-19T01:02:18;3.50;;;3.20;;
14584;SDS011;7379;51.506;11.876;2023-11-19T01:04:45;3.40;;;3.10;;
14584;SDS011;7379;51.506;11.876;2023-11-19T01:07:12;3.90;;;3.50;;
14584;SDS011;7379;51.506;11.876;2023-11-19T01:09:41;4.17;;;3.30;;
14584;SDS011;7379;51.506;11.876;2023-11-19T01:12:08;3.40;;;3.10;;
14584;SDS011;7379;51.506;11.876;2023-11-19T01:14:36;5.07;;;3.30;;
14584;SDS011;7379;51.506;11.876;2023-11-19T01:17:03;3.80;;;3.40;;
14584;SDS011;7379;51.506;11.876;2023-11-19T01:19:30;3.47;;;3.13;;
14584;SDS011;7379;51.506;11.876;2023-11-19T01:21:57;3.23;;;2.93;;
14584;SDS011;7379;51.506;11.876;2023-11-19T01:24:24;3.90;;;3.00;;
14584;SDS011;7379;51.506;11.876;2023-11-19T01:26:53;3.00;;;2.70;;
14584;SDS011;7379;51.506;11.876;2023-11-19T01:29:20;3.10;;;2.80;;
14584;SDS011;7379;51.506;11.876;2023-11-19T01:31:48;3.00;;;2.70;;
14584;SDS011;7379;51.506;11.876;2023-11-19T01:34:16;3.30;;;3.00;;
14584;SDS011;7379;51.506;11.876;2023-11-19T01:36:43;3.00;;;2.80;;
14584;SDS011;7379;51.506;11.876;2023-11-19T01:39:11;2.83;;;2.63;;
14584;SDS011;7379;51.506;11.876;2023-11-19T01:41:39;2.70;;;2.50;;
14584;SDS011;7379;51.506;11.876;2023-11-19T01:44:05;3.00;;;2.70;;
14584;SDS011;7379;51.506;11.876;2023-11-19T01:46:33;2.80;;;2.60;;
14584;SDS011;7379;51.506;11.876;2023-11-19T01:49:03;3.43;;;2.83;;
14584;SDS011;7379;51.506;11.876;2023-11-19T01:51:31;3.20;;;2.60;;
14584;SDS011;7379;51.506;11.876;2023-11-19T01:53:59;2.70;;;2.47;;
14584;SDS011;7379;51.506;11.876;2023-11-19T01:56:26;3.10;;;2.80;;
14584;SDS011;7379;51.506;11.876;2023-11-19T01:58:55;3.33;;;2.60;;
14584;SDS011;7379;51.506;11.876;2023-11-19T02:01:23;2.90;;;2.60;;
14584;SDS011;7379;51.506;11.876;2023-11-19T02:03:50;3.43;;;2.50;;
14584;SDS011;7379;51.506;11.876;2023-11-19T02:06:19;2.60;;;2.40;;
14584;SDS011;7379;51.506;11.876;2023-11-19T02:08:46;2.70;;;2.50;;
14584;SDS011;7379;51.506;11.876;2023-11-19T02:11:13;3.10;;;2.80;;
14584;SDS011;7379;51.506;11.876;2023-11-19T02:13:40;3.63;;;2.70;;
14584;SDS011;7379;51.506;11.876;2023-11-19T02:16:09;2.70;;;2.50;;
14584;SDS011;7379;51.506;11.876;2023-11-19T02:18:36;2.83;;;2.63;;
14584;SDS011;7379;51.506;11.876;2023-11-19T02:21:03;3.30;;;2.60;;
14584;SDS011;7379;51.506;11.876;2023-11-19T02:23:32;2.50;;;2.30;;
14584;SDS011;7379;51.506;11.876;2023-11-19T02:26:02;2.73;;;2.30;;
14584;SDS011;7379;51.506;11.876;2023-11-19T02:28:35;2.70;;;2.50;;
14584;SDS011;7379;51.506;11.876;2023-11-19T02:31:03;3.40;;;2.60;;
14584;SDS011;7379;51.506;11.876;2023-11-19T02:33:34;2.73;;;2.53;;
14584;SDS011;7379;51.506;11.876;2023-11-19T02:36:01;3.00;;;2.70;;
14584;SDS011;7379;51.506;11.876;2023-11-19T02:38:28;2.80;;;2.60;;
14584;SDS011;7379;51.506;11.876;2023-11-19T02:40:55;2.87;;;2.67;;
14584;SDS011;7379;51.506;11.876;2023-11-19T02:43:22;2.77;;;2.43;;
14584;SDS011;7379;51.506;11.876;2023-11-19T02:45:51;2.80;;;2.60;;
14584;SDS011;7379;51.506;11.876;2023-11-19T02:48:20;3.33;;;2.50;;
14584;SDS011;7379;51.506;11.876;2023-11-19T02:50:47;2.97;;;2.50;;
14584;SDS011;7379;51.506;11.876;2023-11-19T02:53:14;2.97;;;2.67;;
14584;SDS011;7379;51.506;11.876;2023-11-19T02:55:42;2.80;;;2.60;;
14584;SDS011;7379;51.506;11.876;2023-11-19T02:58:13;3.00;;;2.50;;
14584;SDS011;7379;51.506;11.876;2023-11-19T03:00:48;2.60;;;2.40;;
14584;SDS011;7379;51.506;11.876;2023-11-19T03:03:22;2.87;;;2.67;;
14584;SDS011;7379;51.506;11.876;2023-11-19T03:05:53;4.17;;;2.87;;
14584;SDS011;7379;51.506;11.876;2023-11-19T03:08:20;2.47;;;2.27;;
14584;SDS011;7379;51.506;11.876;2023-11-19T03:10:48;2.53;;;2.33;;
14584;SDS011;7379;51.506;11.876;2023-11-19T03:13:15;2.60;;;2.40;;
14584;SDS011;7379;51.506;11.876;2023-11-19T03:15:43;2.47;;;2.27;;
14584;SDS011;7379;51.506;11.876;2023-11-19T03:18:11;2.40;;;2.20;;
14584;SDS011;7379;51.506;11.876;2023-11-19T03:20:38;2.23;;;2.03;;
14584;SDS011;7379;51.506;11.876;2023-11-19T03:23:05;2.20;;;2.00;;
14584;SDS011;7379;51.506;11.876;2023-11-19T03:25:32;2.20;;;2.00;;
14584;SDS011;7379;51.506;11.876;2023-11-19T03:27:59;2.30;;;2.10;;
14584;SDS011;7379;51.506;11.876;2023-11-19T03:30:27;2.20;;;2.00;;
14584;SDS011;7379;51.506;11.876;2023-11-19T03:32:54;2.30;;;2.10;;
14584;SDS011;7379;51.506;11.876;2023-11-19T03:35:23;2.07;;;1.90;;
14584;SDS011;7379;51.506;11.876;2023-11-19T03:37:50;2.90;;;1.73;;
14584;SDS011;7379;51.506;11.876;2023-11-19T03:40:16;2.23;;;2.00;;
14584;SDS011;7379;51.506;11.876;2023-11-19T03:42:44;1.80;;;1.70;;
14584;SDS011;7379;51.506;11.876;2023-11-19T03:45:11;2.27;;;1.80;;
14584;SDS011;7379;51.506;11.876;2023-11-19T03:47:38;1.90;;;1.70;;
14584;SDS011;7379;51.506;11.876;2023-11-19T03:50:06;1.83;;;1.73;;
14584;SDS011;7379;51.506;11.876;2023-11-19T03:52:35;2.00;;;1.70;;
14584;SDS011;7379;51.506;11.876;2023-11-19T03:55:03;1.67;;;1.57;;
14584;SDS011;7379;51.506;11.876;2023-11-19T03:57:30;1.93;;;1.57;;
14584;SDS011;7379;51.506;11.876;2023-11-19T03:59:57;1.60;;;1.50;;
14584;SDS011;7379;51.506;11.876;2023-11-19T04:02:24;1.60;;;1.50;;
14584;SDS011;7379;51.506;11.876;2023-11-19T04:04:53;2.10;;;1.60;;
14584;SDS011;7379;51.506;11.876;2023-11-19T04:07:21;1.60;;;1.40;;
14584;SDS011;7379;51.506;11.876;2023-11-19T04:09:50;1.50;;;1.40;;
14584;SDS011;7379;51.506;11.876;2023-11-19T04:12:17;2.27;;;1.33;;
14584;SDS011;7379;51.506;11.876;2023-11-19T04:14:43;1.60;;;1.50;;
14584;SDS011;7379;51.506;11.876;2023-11-19T04:17:10;2.93;;;1.70;;
14584;SDS011;7379;51.506;11.876;2023-11-19T04:19:37;2.37;;;1.60;;
14584;SDS011;7379;51.506;11.876;2023-11-19T04:22:06;1.50;;;1.40;;
14584;SDS011;7379;51.506;11.876;2023-11-19T04:24:33;1.40;;;1.30;;
14584;SDS011;7379;51.506;11.876;2023-11-19T04:27:01;1.50;;;1.40;;
14584;SDS011;7379;51.506;11.876;2023-11-19T04:29:29;1.70;;;1.40;;
14584;SDS011;7379;51.506;11.876;2023-11-19T04:31:56;1.47;;;1.30;;
14584;SDS011;7379;51.506;11.876;2023-11-19T04:34:23;1.27;;;1.20;;
14584;SDS011;7379;51.506;11.876;2023-11-19T04:36:51;1.40;;;1.30;;
14584;SDS011;7379;51.506;11.876;2023-11-19T04:39:17;1.37;;;1.17;;
14584;SDS011;7379;51.506;11.876;2023-11-19T04:41:48;1.37;;;1.27;;
14584;SDS011;7379;51.506;11.876;2023-11-19T04:44:18;1.10;;;1.10;;
14584;SDS011;7379;51.506;11.876;2023-11-19T04:46:45;1.47;;;1.37;;
14584;SDS011;7379;51.506;11.876;2023-11-19T04:49:13;1.30;;;1.20;;
14584;SDS011;7379;51.506;11.876;2023-11-19T04:51:40;1.10;;;1.10;;
14584;SDS011;7379;51.506;11.876;2023-11-19T04:54:07;1.70;;;1.40;;
14584;SDS011;7379;51.506;11.876;2023-11-19T04:56:34;1.23;;;1.20;;
14584;SDS011;7379;51.506;11.876;2023-11-19T04:59:02;1.10;;;1.10;;
14584;SDS011;7379;51.506;11.876;2023-11-19T05:01:32;1.87;;;1.60;;
14584;SDS011;7379;51.506;11.876;2023-11-19T05:03:59;1.10;;;1.10;;
14584;SDS011;7379;51.506;11.876;2023-11-19T05:06:26;1.00;;;1.00;;
14584;SDS011;7379;51.506;11.876;2023-11-19T05:08:54;1.20;;;1.10;;
14584;SDS011;7379;51.506;11.876;2023-11-19T05:11:21;1.30;;;1.20;;
14584;SDS011;7379;51.506;11.876;2023-11-19T05:13:48;1.30;;;1.20;;
14584;SDS011;7379;51.506;11.876;2023-11-19T05:16:15;1.00;;;1.00;;
14584;SDS011;7379;51.506;11.876;2023-11-19T05:18:44;1.20;;;1.20;;
14584;SDS011;7379;51.506;11.876;2023-11-19T05:21:10;1.40;;;1.30;;
14584;SDS011;7379;51.506;11.876;2023-11-19T05:23:37;1.10;;;1.10;;
14584;SDS011;7379;51.506;11.876;2023-11-19T05:26:05;1.23;;;1.13;;
14584;SDS011;7379;51.506;11.876;2023-11-19T05:28:32;1.20;;;1.20;;
14584;SDS011;7379;51.506;11.876;2023-11-19T05:30:59;1.20;;;1.10;;
14584;SDS011;7379;51.506;11.876;2023-11-19T05:33:26;0.93;;;0.93;;
14584;SDS011;7379;51.506;11.876;2023-11-19T05:35:54;1.30;;;1.20;;
14584;SDS011;7379;51.506;11.876;2023-11-19T05:38:22;1.43;;;1.10;;
14584;SDS011;7379;51.506;11.876;2023-11-19T05:40:49;1.00;;;1.00;;
14584;SDS011;7379;51.506;11.876;2023-11-19T05:43:15;1.17;;;1.07;;
14584;SDS011;7379;51.506;11.876;2023-11-19T05:45:42;1.10;;;1.10;;
14584;SDS011;7379;51.506;11.876;2023-11-19T05:48:09;1.20;;;1.10;;
14584;SDS011;7379;51.506;11.876;2023-11-19T05:50:36;1.00;;;1.00;;
14584;SDS011;7379;51.506;11.876;2023-11-19T05:53:05;0.90;;;0.90;;
14584;SDS011;7379;51.506;11.876;2023-11-19T05:55:35;1.10;;;1.10;;
14584;SDS011;7379;51.506;11.876;2023-11-19T05:58:09;0.97;;;0.97;;
14584;SDS011;7379;51.506;11.876;2023-11-19T06:00:37;0.80;;;0.80;;
14584;SDS011;7379;51.506;11.876;2023-11-19T06:03:04;1.20;;;1.03;;
14584;SDS011;7379;51.506;11.876;2023-11-19T06:05:31;1.07;;;1.07;;
14584;SDS011;7379;51.506;11.876;2023-11-19T06:07:58;1.17;;;1.10;;
14584;SDS011;7379;51.506;11.876;2023-11-19T06:10:26;0.80;;;0.80;;
14584;SDS011;7379;51.506;11.876;2023-11-19T06:12:56;1.17;;;1.17;;
14584;SDS011;7379;51.506;11.876;2023-11-19T06:15:24;1.10;;;1.03;;
14584;SDS011;7379;51.506;11.876;2023-11-19T06:17:52;1.03;;;1.03;;
14584;SDS011;7379;51.506;11.876;2023-11-19T06:20:19;0.97;;;0.97;;
14584;SDS011;7379;51.506;11.876;2023-11-19T06:22:46;1.03;;;0.97;;
14584;SDS011;7379;51.506;11.876;2023-11-19T06:25:13;1.23;;;1.20;;
14584;SDS011;7379;51.506;11.876;2023-11-19T06:27:42;1.30;;;1.20;;
14584;SDS011;7379;51.506;11.876;2023-11-19T06:30:09;1.30;;;1.20;;
14584;SDS011;7379;51.506;11.876;2023-11-19T06:32:37;1.00;;;1.00;;
14584;SDS011;7379;51.506;11.876;2023-11-19T06:35:04;1.30;;;1.20;;
14584;SDS011;7379;51.506;11.876;2023-11-19T06:37:31;1.20;;;1.20;;
14584;SDS011;7379;51.506;11.876;2023-11-19T06:39:58;1.10;;;1.10;;
14584;SDS011;7379;51.506;11.876;2023-11-19T06:42:25;1.10;;;1.10;;
14584;SDS011;7379;51.506;11.876;2023-11-19T06:44:54;1.10;;;1.10;;
14584;SDS011;7379;51.506;11.876;2023-11-19T06:47:22;1.20;;;1.10;;
14584;SDS011;7379;51.506;11.876;2023-11-19T06:49:51;1.00;;;1.00;;
14584;SDS011;7379;51.506;11.876;2023-11-19T06:52:18;1.03;;;1.03;;
14584;SDS011;7379;51.506;11.876;2023-11-19T06:54:44;1.20;;;1.10;;
14584;SDS011;7379;51.506;11.876;2023-11-19T06:57:11;1.30;;;1.20;;
14584;SDS011;7379;51.506;11.876;2023-11-19T06:59:39;1.00;;;1.00;;
14584;SDS011;7379;51.506;11.876;2023-11-19T07:02:07;1.27;;;1.17;;
14584;SDS011;7379;51.506;11.876;2023-11-19T07:04:34;1.03;;;1.03;;
14584;SDS011;7379;51.506;11.876;2023-11-19T07:07:02;1.17;;;1.00;;
14584;SDS011;7379;51.506;11.876;2023-11-19T07:09:30;1.20;;;1.10;;
14584;SDS011;7379;51.506;11.876;2023-11-19T07:11:57;1.00;;;1.00;;
14584;SDS011;7379;51.506;11.876;2023-11-19T07:14:26;1.00;;;1.00;;
14584;SDS011;7379;51.506;11.876;2023-11-19T07:16:53;0.80;;;0.80;;
14584;SDS011;7379;51.506;11.876;2023-11-19T07:19:22;1.10;;;1.10;;
14584;SDS011;7379;51.506;11.876;2023-11-19T07:21:49;1.30;;;1.20;;
14584;SDS011;7379;51.506;11.876;2023-11-19T07:24:15;1.37;;;1.27;;
14584;SDS011;7379;51.506;11.876;2023-11-19T07:26:42;1.30;;;1.20;;
14584;SDS011;7379;51.506;11.876;2023-11-19T07:29:10;1.20;;;1.10;;
14584;SDS011;7379;51.506;11.876;2023-11-19T07:31:37;1.40;;;1.30;;
14584;SDS011;7379;51.506;11.876;2023-11-19T07:34:03;1.03;;;1.03;;
14584;SDS011;7379;51.506;11.876;2023-11-19T07:36:32;1.33;;;1.23;;
14584;SDS011;7379;51.506;11.876;2023-11-19T07:39:00;1.10;;;1.10;;
14584;SDS011;7379;51.506;11.876;2023-11-19T07:41:27;1.20;;;1.10;;
14584;SDS011;7379;51.506;11.876;2023-11-19T07:43:54;1.20;;;1.20;;
14584;SDS011;7379;51.506;11.876;2023-11-19T07:46:21;1.03;;;1.03;;
14584;SDS011;7379;51.506;11.876;2023-11-19T07:48:48;1.13;;;1.13;;
14584;SDS011;7379;51.506;11.876;2023-11-19T07:51:14;1.20;;;1.10;;
14584;SDS011;7379;51.506;11.876;2023-11-19T07:53:43;1.23;;;1.13;;
14584;SDS011;7379;51.506;11.876;2023-11-19T07:56:10;1.20;;;1.10;;
14584;SDS011;7379;51.506;11.876;2023-11-19T07:58:37;1.20;;;1.20;;
14584;SDS011;7379;51.506;11.876;2023-11-19T08:01:04;1.10;;;1.10;;
14584;SDS011;7379;51.506;11.876;2023-11-19T08:03:31;1.10;;;1.10;;
14584;SDS011;7379;51.506;11.876;2023-11-19T08:05:59;1.00;;;1.00;;
14584;SDS011;7379;51.506;11.876;2023-11-19T08:08:26;1.13;;;1.13;;
14584;SDS011;7379;51.506;11.876;2023-11-19T08:10:55;1.30;;;1.20;;
14584;SDS011;7379;51.506;11.876;2023-11-19T08:13:23;1.10;;;1.00;;
14584;SDS011;7379;51.506;11.876;2023-11-19T08:15:50;1.53;;;1.20;;
14584;SDS011;7379;51.506;11.876;2023-11-19T08:18:17;1.03;;;1.03;;
14584;SDS011;7379;51.506;11.876;2023-11-19T08:20:44;1.17;;;1.10;;
14584;SDS011;7379;51.506;11.876;2023-11-19T08:23:14;1.43;;;1.30;;
14584;SDS011;7379;51.506;11.876;2023-11-19T08:25:40;1.40;;;1.30;;
14584;SDS011;7379;51.506;11.876;2023-11-19T08:28:09;1.50;;;1.40;;
14584;SDS011;7379;51.506;11.876;2023-11-19T08:30:36;2.40;;;1.40;;
14584;SDS011;7379;51.506;11.876;2023-11-19T08:33:02;2.13;;;1.30;;
14584;SDS011;7379;51.506;11.876;2023-11-19T08:35:31;1.43;;;1.30;;
14584;SDS011;7379;51.506;11.876;2023-11-19T08:37:57;1.60;;;1.30;;
14584;SDS011;7379;51.506;11.876;2023-11-19T08:40:25;1.30;;;1.20;;
14584;SDS011;7379;51.506;11.876;2023-11-19T08:42:52;1.30;;;1.20;;
14584;SDS011;7379;51.506;11.876;2023-11-19T08:45:20;1.43;;;1.33;;
14584;SDS011;7379;51.506;11.876;2023-11-19T08:47:47;2.33;;;1.50;;
14584;SDS011;7379;51.506;11.876;2023-11-19T08:50:13;1.50;;;1.40;;
14584;SDS011;7379;51.506;11.876;2023-11-19T08:52:40;1.50;;;1.40;;
14584;SDS011;7379;51.506;11.876;2023-11-19T08:55:07;1.33;;;1.23;;
14584;SDS011;7379;51.506;11.876;2023-11-19T08:57:35;2.37;;;1.50;;
14584;SDS011;7379;51.506;11.876;2023-11-19T09:00:02;1.53;;;1.43;;
14584;SDS011;7379;51.506;11.876;2023-11-19T09:02:33;1.97;;;1.50;;
14584;SDS011;7379;51.506;11.876;2023-11-19T09:05:02;1.93;;;1.73;;
14584;SDS011;7379;51.506;11.876;2023-11-19T09:07:29;1.63;;;1.53;;
14584;SDS011;7379;51.506;11.876;2023-11-19T09:09:55;1.63;;;1.50;;
14584;SDS011;7379;51.506;11.876;2023-11-19T09:12:22;1.77;;;1.60;;
14584;SDS011;7379;51.506;11.876;2023-11-19T09:14:49;1.60;;;1.50;;
14584;SDS011;7379;51.506;11.876;2023-11-19T09:17:16;1.90;;;1.57;;
14584;SDS011;7379;51.506;11.876;2023-11-19T09:19:45;1.73;;;1.63;;
14584;SDS011;7379;51.506;11.876;2023-11-19T09:22:11;3.07;;;1.50;;
14584;SDS011;7379;51.506;11.876;2023-11-19T09:24:38;1.97;;;1.60;;
14584;SDS011;7379;51.506;11.876;2023-11-19T09:27:05;2.30;;;1.70;;
14584;SDS011;7379;51.506;11.876;2023-11-19T09:29:32;1.53;;;1.40;;
14584;SDS011;7379;51.506;11.876;2023-11-19T09:31:59;1.80;;;1.60;;
14584;SDS011;7379;51.506;11.876;2023-11-19T09:34:26;2.17;;;1.60;;
14584;SDS011;7379;51.506;11.876;2023-11-19T09:36:55;1.60;;;1.50;;
14584;SDS011;7379;51.506;11.876;2023-11-19T09:39:22;1.80;;;1.60;;
14584;SDS011;7379;51.506;11.876;2023-11-19T09:41:50;1.80;;;1.70;;
14584;SDS011;7379;51.506;11.876;2023-11-19T09:44:17;1.67;;;1.57;;
14584;SDS011;7379;51.506;11.876;2023-11-19T09:46:45;2.80;;;1.53;;
14584;SDS011;7379;51.506;11.876;2023-11-19T09:49:14;3.30;;;2.00;;
14584;SDS011;7379;51.506;11.876;2023-11-19T09:51:43;2.37;;;1.80;;
14584;SDS011;7379;51.506;11.876;2023-11-19T09:54:11;4.47;;;1.90;;
14584;SDS011;7379;51.506;11.876;2023-11-19T09:56:38;2.57;;;1.70;;
14584;SDS011;7379;51.506;11.876;2023-11-19T09:59:06;1.90;;;1.80;;
14584;SDS011;7379;51.506;11.876;2023-11-19T10:01:35;2.37;;;1.80;;
14584;SDS011;7379;51.506;11.876;2023-11-19T10:04:03;1.60;;;1.50;;
14584;SDS011;7379;51.506;11.876;2023-11-19T10:06:31;3.40;;;1.90;;
14584;SDS011;7379;51.506;11.876;2023-11-19T10:08:58;2.30;;;2.07;;
14584;SDS011;7379;51.506;11.876;2023-11-19T10:11:26;2.37;;;1.90;;
14584;SDS011;7379;51.506;11.876;2023-11-19T10:13:53;3.27;;;2.30;;
14584;SDS011;7379;51.506;11.876;2023-11-19T10:16:20;2.97;;;2.00;;
14584;SDS011;7379;51.506;11.876;2023-11-19T10:18:54;2.33;;;2.07;;
14584;SDS011;7379;51.506;11.876;2023-11-19T10:21:22;3.57;;;2.03;;
14584;SDS011;7379;51.506;11.876;2023-11-19T10:23:49;3.30;;;1.90;;
14584;SDS011;7379;51.506;11.876;2023-11-19T10:26:17;2.23;;;1.97;;
14584;SDS011;7379;51.506;11.876;2023-11-19T10:28:47;3.60;;;2.20;;
14584;SDS011;7379;51.506;11.876;2023-11-19T10:31:14;2.93;;;2.40;;
14584;SDS011;7379;51.506;11.876;2023-11-19T10:33:41;2.97;;;2.40;;
14584;SDS011;7379;51.506;11.876;2023-11-19T10:36:09;4.13;;;2.43;;
14584;SDS011;7379;51.506;11.876;2023-11-19T10:38:37;4.73;;;2.67;;
14584;SDS011;7379;51.506;11.876;2023-11-19T10:41:05;2.40;;;2.20;;
14584;SDS011;7379;51.506;11.876;2023-11-19T10:43:42;3.50;;;2.23;;
14584;SDS011;7379;51.506;11.876;2023-11-19T10:46:11;3.43;;;2.20;;
14584;SDS011;7379;51.506;11.876;2023-11-19T10:48:39;3.60;;;2.33;;
14584;SDS011;7379;51.506;11.876;2023-11-19T10:51:06;4.33;;;2.60;;
14584;SDS011;7379;51.506;11.876;2023-11-19T10:53:35;4.73;;;2.67;;
14584;SDS011;7379;51.506;11.876;2023-11-19T10:56:04;3.00;;;2.40;;
14584;SDS011;7379;51.506;11.876;2023-11-19T10:58:36;5.97;;;2.50;;
14584;SDS011;7379;51.506;11.876;2023-11-19T11:01:06;3.50;;;2.30;;
14584;SDS011;7379;51.506;11.876;2023-11-19T11:03:39;4.77;;;2.60;;
14584;SDS011;7379;51.506;11.876;2023-11-19T11:06:06;3.93;;;2.40;;
14584;SDS011;7379;51.506;11.876;2023-11-19T11:08:36;3.00;;;2.30;;
14584;SDS011;7379;51.506;11.876;2023-11-19T11:11:04;4.20;;;2.50;;
14584;SDS011;7379;51.506;11.876;2023-11-19T11:13:32;4.70;;;2.70;;
14584;SDS011;7379;51.506;11.876;2023-11-19T11:16:00;6.10;;;2.70;;
14584;SDS011;7379;51.506;11.876;2023-11-19T11:18:29;5.23;;;2.27;;
14584;SDS011;7379;51.506;11.876;2023-11-19T11:20:59;6.00;;;2.77;;
14584;SDS011;7379;51.506;11.876;2023-11-19T11:23:44;4.37;;;2.30;;
14584;SDS011;7379;51.506;11.876;2023-11-19T11:26:38;6.97;;;2.97;;
14584;SDS011;7379;51.506;11.876;2023-11-19T11:29:20;5.17;;;2.60;;
14584;SDS011;7379;51.506;11.876;2023-11-19T11:31:58;4.53;;;2.53;;
14584;SDS011;7379;51.506;11.876;2023-11-19T11:34:39;4.83;;;2.53;;
14584;SDS011;7379;51.506;11.876;2023-11-19T11:37:18;4.83;;;2.60;;
14584;SDS011;7379;51.506;11.876;2023-11-19T11:39:49;5.77;;;2.80;;
14584;SDS011;7379;51.506;11.876;2023-11-19T11:42:32;6.40;;;2.80;;
14584;SDS011;7379;51.506;11.876;2023-11-19T11:45:03;5.97;;;2.97;;
14584;SDS011;7379;51.506;11.876;2023-11-19T11:50:34;7.13;;;3.33;;
14584;SDS011;7379;51.506;11.876;2023-11-19T11:53:16;6.43;;;3.13;;
14584;SDS011;7379;51.506;11.876;2023-11-19T11:55:54;6.03;;;3.27;;
14584;SDS011;7379;51.506;11.876;2023-11-19T11:58:28;8.77;;;3.53;;
14584;SDS011;7379;51.506;11.876;2023-11-19T12:00:57;9.70;;;3.10;;
14584;SDS011;7379;51.506;11.876;2023-11-19T12:03:26;9.27;;;3.83;;
14584;SDS011;7379;51.506;11.876;2023-11-19T12:05:55;10.60;;;3.80;;
14584;SDS011;7379;51.506;11.876;2023-11-19T12:08:26;10.40;;;3.60;;
14584;SDS011;7379;51.506;11.876;2023-11-19T12:10:55;9.30;;;3.40;;
14584;SDS011;7379;51.506;11.876;2023-11-19T12:13:24;11.33;;;3.70;;
14584;SDS011;7379;51.506;11.876;2023-11-19T12:16:09;15.20;;;4.10;;
14584;SDS011;7379;51.506;11.876;2023-11-19T12:18:38;9.60;;;3.70;;
14584;SDS011;7379;51.506;11.876;2023-11-19T12:21:06;13.27;;;3.80;;
14584;SDS011;7379;51.506;11.876;2023-11-19T12:23:37;10.50;;;4.10;;
14584;SDS011;7379;51.506;11.876;2023-11-19T12:26:30;11.27;;;3.70;;
14584;SDS011;7379;51.506;11.876;2023-11-19T12:29:01;11.77;;;3.50;;
14584;SDS011;7379;51.506;11.876;2023-11-19T12:31:32;12.23;;;3.77;;
14584;SDS011;7379;51.506;11.876;2023-11-19T12:34:08;11.03;;;3.67;;
14584;SDS011;7379;51.506;11.876;2023-11-19T12:36:37;12.13;;;3.70;;
14584;SDS011;7379;51.506;11.876;2023-11-19T12:39:09;9.70;;;3.75;;
14584;SDS011;7379;51.506;11.876;2023-11-19T12:41:48;10.37;;;3.20;;
14584;SDS011;7379;51.506;11.876;2023-11-19T12:44:17;12.73;;;3.47;;
14584;SDS011;7379;51.506;11.876;2023-11-19T12:46:43;11.13;;;3.15;;
14584;SDS011;7379;51.506;11.876;2023-11-19T12:49:11;11.95;;;3.47;;
14584;SDS011;7379;51.506;11.876;2023-11-19T12:51:38;11.88;;;3.67;;
14584;SDS011;7379;51.506;11.876;2023-11-19T12:54:06;9.68;;;3.90;;
14584;SDS011;7379;51.506;11.876;2023-11-19T12:56:34;11.37;;;3.73;;
14584;SDS011;7379;51.506;11.876;2023-11-19T12:59:09;11.02;;;3.78;;
14584;SDS011;7379;51.506;11.876;2023-11-19T13:01:37;14.75;;;3.83;;
14584;SDS011;7379;51.506;11.876;2023-11-19T13:04:15;10.03;;;3.73;;
14584;SDS011;7379;51.506;11.876;2023-11-19T13:06:44;10.65;;;3.92;;
14584;SDS011;7379;51.506;11.876;2023-11-19T13:09:20;10.77;;;3.28;;
14584;SDS011;7379;51.506;11.876;2023-11-19T13:11:49;10.43;;;4.10;;
14584;SDS011;7379;51.506;11.876;2023-11-19T13:14:16;9.73;;;3.50;;
14584;SDS011;7379;51.506;11.876;2023-11-19T13:16:44;7.67;;;3.10;;
14584;SDS011;7379;51.506;11.876;2023-11-19T13:19:11;10.20;;;3.50;;
14584;SDS011;7379;51.506;11.876;2023-11-19T13:21:38;14.63;;;4.00;;
14584;SDS011;7379;51.506;11.876;2023-11-19T13:24:05;10.10;;;3.17;;
14584;SDS011;7379;51.506;11.876;2023-11-19T13:26:32;17.77;;;4.00;;
14584;SDS011;7379;51.506;11.876;2023-11-19T13:29:01;11.43;;;4.00;;
14584;SDS011;7379;51.506;11.876;2023-11-19T13:31:28;14.23;;;3.93;;
14584;SDS011;7379;51.506;11.876;2023-11-19T13:33:55;11.47;;;3.80;;
14584;SDS011;7379;51.506;11.876;2023-11-19T13:36:23;10.13;;;3.83;;
14584;SDS011;7379;51.506;11.876;2023-11-19T13:38:51;13.03;;;4.13;;
14584;SDS011;7379;51.506;11.876;2023-11-19T13:41:23;12.20;;;4.30;;
14584;SDS011;7379;51.506;11.876;2023-11-19T13:43:50;13.82;;;4.03;;
14584;SDS011;7379;51.506;11.876;2023-11-19T13:46:19;7.88;;;3.53;;
14584;SDS011;7379;51.506;11.876;2023-11-19T13:48:45;12.93;;;3.67;;
14584;SDS011;7379;51.506;11.876;2023-11-19T13:51:14;9.93;;;3.80;;
14584;SDS011;7379;51.506;11.876;2023-11-19T13:53:41;12.20;;;3.95;;
14584;SDS011;7379;51.506;11.876;2023-11-19T13:56:09;12.48;;;3.55;;
14584;SDS011;7379;51.506;11.876;2023-11-19T13:58:35;11.18;;;3.33;;
14584;SDS011;7379;51.506;11.876;2023-11-19T14:01:02;11.37;;;3.37;;
14584;SDS011;7379;51.506;11.876;2023-11-19T14:03:31;8.95;;;3.40;;
14584;SDS011;7379;51.506;11.876;2023-11-19T14:05:58;15.90;;;4.57;;
14584;SDS011;7379;51.506;11.876;2023-11-19T14:08:25;14.80;;;4.87;;
14584;SDS011;7379;51.506;11.876;2023-11-19T14:10:52;14.77;;;4.40;;
14584;SDS011;7379;51.506;11.876;2023-11-19T14:13:21;17.40;;;5.20;;
14584;SDS011;7379;51.506;11.876;2023-11-19T14:15:48;14.87;;;4.53;;
14584;SDS011;7379;51.506;11.876;2023-11-19T14:18:16;15.70;;;4.18;;
14584;SDS011;7379;51.506;11.876;2023-11-19T14:20:44;12.02;;;3.58;;
14584;SDS011;7379;51.506;11.876;2023-11-19T14:23:11;15.43;;;4.53;;
14584;SDS011;7379;51.506;11.876;2023-11-19T14:25:38;11.93;;;3.75;;
14584;SDS011;7379;51.506;11.876;2023-11-19T14:28:04;9.67;;;3.53;;
14584;SDS011;7379;51.506;11.876;2023-11-19T14:30:31;13.17;;;3.60;;
14584;SDS011;7379;51.506;11.876;2023-11-19T14:32:58;12.63;;;4.20;;
14584;SDS011;7379;51.506;11.876;2023-11-19T14:35:25;9.70;;;3.97;;
14584;SDS011;7379;51.506;11.876;2023-11-19T14:37:53;9.47;;;3.60;;
14584;SDS011;7379;51.506;11.876;2023-11-19T14:40:21;10.50;;;3.40;;
14584;SDS011;7379;51.506;11.876;2023-11-19T14:42:47;10.18;;;3.30;;
14584;SDS011;7379;51.506;11.876;2023-11-19T14:45:15;12.93;;;3.27;;
14584;SDS011;7379;51.506;11.876;2023-11-19T14:47:42;11.27;;;3.60;;
14584;SDS011;7379;51.506;11.876;2023-11-19T14:50:10;13.87;;;3.40;;
14584;SDS011;7379;51.506;11.876;2023-11-19T14:52:37;13.02;;;3.97;;
14584;SDS011;7379;51.506;11.876;2023-11-19T14:55:06;9.80;;;3.67;;